VXP233 KHVN-KLAL
Flight info
| Callsign | VXP233 |
|---|---|
| Flight time | 2h 14m |
| Altitude | 38000 |
| Route | BEADS EMJAY KALDA WAALT BAHAA HIBAC BEAUX ZINGR WORAK ZOPER CAMKO ROSTR GUURR DADES ARSHW |
| Aircraft | A20N/M-SDE2E3FGHIRWXY/LB1 |
Departure
| Time | 2026-04-21 19:48 |
|---|---|
| Airport | Tweed New Haven Airport (KHVN) |
Arrival
| Time | 2026-04-21 22:02 |
|---|---|
| Airport | Lakeland Linder International Airport (KLAL) |
| Time | Latitude | Longitude | Altitude | Speed | Heading |
|---|---|---|---|---|---|
| 2026-04-21 19:41 | 41.26922 | -72.89007 | 15 ft | 0 kts | 71° |
| 2026-04-21 19:46 | 41.26926 | -72.88999 | 15 ft | 2 kts | 54° |
| 2026-04-21 19:46 | 41.26944 | -72.88968 | 16 ft | 6 kts | 51° |
| 2026-04-21 19:46 | 41.26969 | -72.88916 | 17 ft | 7 kts | 70° |
| 2026-04-21 19:46 | 41.26971 | -72.88837 | 17 ft | 10 kts | 94° |
| 2026-04-21 19:47 | 41.26970 | -72.88746 | 19 ft | 8 kts | 123° |
| 2026-04-21 19:47 | 41.26945 | -72.88737 | 17 ft | 0 kts | 179° |
| 2026-04-21 19:47 | 41.26800 | -72.88745 | 14 ft | 65 kts | 182° |
| 2026-04-21 19:47 | 41.26059 | -72.88795 | 27 ft | 143 kts | 183° |
| 2026-04-21 19:48 | 41.25037 | -72.88859 | 724 ft | 151 kts | 183° |
| 2026-04-21 19:48 | 41.23916 | -72.88932 | 1380 ft | 170 kts | 184° |
| 2026-04-21 19:48 | 41.22698 | -72.88943 | 2003 ft | 187 kts | 171° |
| 2026-04-21 19:48 | 41.21420 | -72.88312 | 2589 ft | 206 kts | 155° |
| 2026-04-21 19:49 | 41.20105 | -72.87457 | 3152 ft | 225 kts | 153° |
| 2026-04-21 19:49 | 41.18652 | -72.86439 | 4050 ft | 240 kts | 154° |
| 2026-04-21 19:49 | 41.17126 | -72.85340 | 4750 ft | 258 kts | 153° |
| 2026-04-21 19:49 | 41.15522 | -72.84182 | 5695 ft | 267 kts | 153° |
| 2026-04-21 19:50 | 41.14422 | -72.83389 | 6270 ft | 276 kts | 153° |
| 2026-04-21 19:50 | 41.12105 | -72.81726 | 7438 ft | 290 kts | 153° |
| 2026-04-21 19:50 | 41.10325 | -72.80453 | 8305 ft | 300 kts | 153° |
| 2026-04-21 19:50 | 41.08444 | -72.79111 | 9072 ft | 312 kts | 153° |
| 2026-04-21 19:51 | 41.06506 | -72.77727 | 9986 ft | 321 kts | 153° |
| 2026-04-21 19:51 | 41.04481 | -72.76283 | 10564 ft | 342 kts | 153° |
| 2026-04-21 19:51 | 41.02309 | -72.74737 | 10924 ft | 366 kts | 153° |
| 2026-04-21 19:51 | 41.00018 | -72.73106 | 11530 ft | 379 kts | 153° |
| 2026-04-21 19:52 | 40.97680 | -72.71439 | 12355 ft | 385 kts | 153° |
| 2026-04-21 19:52 | 40.95305 | -72.69747 | 13186 ft | 391 kts | 154° |
| 2026-04-21 19:52 | 40.92890 | -72.68030 | 14003 ft | 397 kts | 154° |
| 2026-04-21 19:52 | 40.90472 | -72.66313 | 14740 ft | 403 kts | 154° |
| 2026-04-21 19:53 | 40.87989 | -72.64552 | 15488 ft | 408 kts | 154° |
| 2026-04-21 19:53 | 40.85480 | -72.62776 | 16266 ft | 410 kts | 154° |
| 2026-04-21 19:53 | 40.82943 | -72.60980 | 16979 ft | 416 kts | 154° |
| 2026-04-21 19:53 | 40.80374 | -72.59163 | 17710 ft | 422 kts | 154° |
| 2026-04-21 19:54 | 40.77755 | -72.57376 | 18407 ft | 425 kts | 160° |
| 2026-04-21 19:54 | 40.74917 | -72.56358 | 19021 ft | 422 kts | 178° |
| 2026-04-21 19:54 | 40.72012 | -72.56426 | 19582 ft | 415 kts | 197° |
| 2026-04-21 19:54 | 40.69333 | -72.57528 | 20149 ft | 404 kts | 214° |
| 2026-04-21 19:55 | 40.67044 | -72.59552 | 20730 ft | 391 kts | 232° |
| 2026-04-21 19:55 | 40.65213 | -72.62153 | 21287 ft | 387 kts | 239° |
| 2026-04-21 19:55 | 40.63439 | -72.64852 | 21881 ft | 393 kts | 237° |
| 2026-04-21 19:55 | 40.61533 | -72.67484 | 22500 ft | 401 kts | 234° |
| 2026-04-21 19:56 | 40.59490 | -72.70035 | 23090 ft | 408 kts | 232° |
| 2026-04-21 19:56 | 40.57351 | -72.72538 | 23675 ft | 414 kts | 231° |
| 2026-04-21 19:56 | 40.55157 | -72.75026 | 24204 ft | 419 kts | 230° |
| 2026-04-21 19:56 | 40.52959 | -72.77491 | 24678 ft | 423 kts | 230° |
| 2026-04-21 19:57 | 40.50707 | -72.80011 | 25151 ft | 427 kts | 230° |
| 2026-04-21 19:57 | 40.48436 | -72.82555 | 25608 ft | 431 kts | 230° |
| 2026-04-21 19:57 | 40.46149 | -72.85120 | 26057 ft | 434 kts | 230° |
| 2026-04-21 19:57 | 40.43842 | -72.87706 | 26499 ft | 438 kts | 230° |
| 2026-04-21 19:58 | 40.41514 | -72.90314 | 26932 ft | 442 kts | 230° |
| 2026-04-21 19:58 | 40.39168 | -72.92941 | 27365 ft | 445 kts | 230° |
| 2026-04-21 19:58 | 40.36803 | -72.95589 | 27743 ft | 449 kts | 230° |
| 2026-04-21 19:58 | 40.34453 | -72.98215 | 28192 ft | 451 kts | 230° |
| 2026-04-21 19:59 | 40.32054 | -73.00894 | 28569 ft | 455 kts | 230° |
| 2026-04-21 19:59 | 40.29636 | -73.03591 | 28931 ft | 458 kts | 229° |
| 2026-04-21 19:59 | 40.27201 | -73.06305 | 29305 ft | 461 kts | 229° |
| 2026-04-21 19:59 | 40.24749 | -73.09036 | 29666 ft | 465 kts | 229° |
| 2026-04-21 20:00 | 40.22277 | -73.11785 | 30017 ft | 468 kts | 229° |
| 2026-04-21 20:00 | 40.19790 | -73.14549 | 30380 ft | 471 kts | 229° |
| 2026-04-21 20:00 | 40.17288 | -73.17325 | 30703 ft | 473 kts | 229° |
| 2026-04-21 20:00 | 40.14771 | -73.20116 | 31023 ft | 476 kts | 229° |
| 2026-04-21 20:01 | 40.12243 | -73.22917 | 31344 ft | 478 kts | 229° |
| 2026-04-21 20:01 | 40.09736 | -73.25692 | 31674 ft | 479 kts | 229° |
| 2026-04-21 20:01 | 40.07188 | -73.28498 | 32087 ft | 479 kts | 229° |
| 2026-04-21 20:01 | 40.04634 | -73.31288 | 32502 ft | 478 kts | 228° |
| 2026-04-21 20:02 | 40.02089 | -73.34062 | 32959 ft | 476 kts | 228° |
| 2026-04-21 20:02 | 39.99548 | -73.36834 | 33359 ft | 476 kts | 228° |
| 2026-04-21 20:02 | 39.97011 | -73.39603 | 33753 ft | 475 kts | 228° |
| 2026-04-21 20:02 | 39.94478 | -73.42368 | 34140 ft | 475 kts | 228° |
| 2026-04-21 20:03 | 39.91946 | -73.45128 | 34489 ft | 474 kts | 228° |
| 2026-04-21 20:03 | 39.89420 | -73.47878 | 34854 ft | 472 kts | 228° |
| 2026-04-21 20:03 | 39.86904 | -73.50612 | 35234 ft | 470 kts | 228° |
| 2026-04-21 20:03 | 39.84435 | -73.53295 | 35586 ft | 468 kts | 228° |
| 2026-04-21 20:04 | 39.81942 | -73.56001 | 35931 ft | 466 kts | 228° |
| 2026-04-21 20:04 | 39.79458 | -73.58695 | 36268 ft | 464 kts | 227° |
| 2026-04-21 20:04 | 39.76981 | -73.61379 | 36601 ft | 462 kts | 227° |
| 2026-04-21 20:04 | 39.74517 | -73.64048 | 36912 ft | 461 kts | 227° |
| 2026-04-21 20:05 | 39.72055 | -73.66710 | 37184 ft | 459 kts | 227° |
| 2026-04-21 20:05 | 39.69606 | -73.69355 | 37506 ft | 457 kts | 227° |
| 2026-04-21 20:05 | 39.67164 | -73.71991 | 37782 ft | 456 kts | 227° |
| 2026-04-21 20:05 | 39.64762 | -73.74582 | 38054 ft | 455 kts | 227° |
| 2026-04-21 20:06 | 39.62331 | -73.77200 | 38294 ft | 454 kts | 227° |
| 2026-04-21 20:06 | 39.57481 | -73.82417 | 38368 ft | 452 kts | 227° |
| 2026-04-21 20:07 | 39.52638 | -73.87616 | 38365 ft | 452 kts | 227° |
| 2026-04-21 20:07 | 39.47794 | -73.92807 | 38365 ft | 452 kts | 227° |
| 2026-04-21 20:08 | 39.42978 | -73.97957 | 38368 ft | 452 kts | 227° |
| 2026-04-21 20:08 | 39.38135 | -74.03125 | 38377 ft | 451 kts | 227° |
| 2026-04-21 20:09 | 39.33301 | -74.08274 | 38380 ft | 449 kts | 227° |
| 2026-04-21 20:09 | 39.28481 | -74.13401 | 38373 ft | 448 kts | 227° |
| 2026-04-21 20:10 | 39.23658 | -74.18528 | 38380 ft | 457 kts | 227° |
| 2026-04-21 20:10 | 39.18697 | -74.23790 | 38368 ft | 466 kts | 227° |
| 2026-04-21 20:11 | 39.13659 | -74.29117 | 38374 ft | 471 kts | 226° |
| 2026-04-21 20:11 | 39.08578 | -74.34475 | 38373 ft | 472 kts | 226° |
| 2026-04-21 20:12 | 39.03500 | -74.39818 | 38377 ft | 470 kts | 226° |
| 2026-04-21 20:12 | 38.99287 | -74.44250 | 38375 ft | 471 kts | 226° |
| 2026-04-21 20:13 | 38.93400 | -74.50429 | 38370 ft | 470 kts | 226° |
| 2026-04-21 20:13 | 38.88337 | -74.55732 | 38368 ft | 470 kts | 226° |
| 2026-04-21 20:14 | 38.83268 | -74.61031 | 38368 ft | 470 kts | 226° |
| 2026-04-21 20:14 | 38.78197 | -74.66322 | 38352 ft | 470 kts | 226° |
| 2026-04-21 20:15 | 38.73158 | -74.71571 | 38374 ft | 470 kts | 226° |
| 2026-04-21 20:15 | 38.68080 | -74.76849 | 38388 ft | 470 kts | 226° |
| 2026-04-21 20:16 | 38.62999 | -74.82121 | 38391 ft | 470 kts | 226° |
| 2026-04-21 20:16 | 38.57917 | -74.87384 | 38379 ft | 470 kts | 226° |
| 2026-04-21 20:17 | 38.52862 | -74.92609 | 38382 ft | 470 kts | 226° |
| 2026-04-21 20:17 | 38.47775 | -74.97858 | 38385 ft | 471 kts | 226° |
| 2026-04-21 20:18 | 38.43539 | -75.02220 | 38364 ft | 471 kts | 226° |
| 2026-04-21 20:18 | 38.37583 | -75.08342 | 38353 ft | 469 kts | 226° |
| 2026-04-21 20:19 | 38.32532 | -75.13525 | 38357 ft | 470 kts | 226° |
| 2026-04-21 20:19 | 38.27441 | -75.18739 | 38358 ft | 470 kts | 226° |
| 2026-04-21 20:20 | 38.22341 | -75.23954 | 38361 ft | 472 kts | 226° |
| 2026-04-21 20:20 | 38.17203 | -75.29198 | 38363 ft | 475 kts | 226° |
| 2026-04-21 20:21 | 38.12076 | -75.34419 | 38354 ft | 477 kts | 226° |
| 2026-04-21 20:21 | 38.06890 | -75.39690 | 38355 ft | 478 kts | 226° |
| 2026-04-21 20:22 | 38.01691 | -75.44965 | 38365 ft | 478 kts | 225° |
| 2026-04-21 20:22 | 37.93890 | -75.52860 | 38358 ft | 479 kts | 226° |
| 2026-04-21 20:23 | 37.88716 | -75.58088 | 38360 ft | 479 kts | 226° |
| 2026-04-21 20:23 | 37.83234 | -75.62988 | 38361 ft | 488 kts | 217° |
| 2026-04-21 20:24 | 37.77097 | -75.66824 | 38349 ft | 494 kts | 211° |
| 2026-04-21 20:24 | 37.70848 | -75.70448 | 38349 ft | 495 kts | 211° |
| 2026-04-21 20:25 | 37.64639 | -75.74071 | 38349 ft | 495 kts | 211° |
| 2026-04-21 20:25 | 37.58390 | -75.77714 | 38349 ft | 495 kts | 211° |
| 2026-04-21 20:26 | 37.52142 | -75.81348 | 38350 ft | 494 kts | 211° |
| 2026-04-21 20:26 | 37.45898 | -75.84970 | 38355 ft | 494 kts | 211° |
| 2026-04-21 20:27 | 37.39658 | -75.88585 | 38358 ft | 494 kts | 211° |
| 2026-04-21 20:27 | 37.33458 | -75.92169 | 38355 ft | 494 kts | 211° |
| 2026-04-21 20:28 | 37.27218 | -75.95770 | 38358 ft | 494 kts | 211° |
| 2026-04-21 20:28 | 37.20974 | -75.99367 | 38360 ft | 494 kts | 211° |
| 2026-04-21 20:29 | 37.14725 | -76.02960 | 38357 ft | 494 kts | 211° |
| 2026-04-21 20:29 | 37.08520 | -76.06521 | 38355 ft | 493 kts | 211° |
| 2026-04-21 20:30 | 37.02283 | -76.10093 | 38353 ft | 493 kts | 211° |
| 2026-04-21 20:30 | 36.96035 | -76.13666 | 38348 ft | 493 kts | 211° |
| 2026-04-21 20:31 | 36.89796 | -76.17227 | 38335 ft | 493 kts | 211° |
| 2026-04-21 20:31 | 36.83560 | -76.20780 | 38351 ft | 493 kts | 211° |
| 2026-04-21 20:32 | 36.77369 | -76.24301 | 38391 ft | 492 kts | 211° |
| 2026-04-21 20:32 | 36.71166 | -76.27819 | 38347 ft | 483 kts | 211° |
| 2026-04-21 20:33 | 36.65061 | -76.31279 | 38348 ft | 482 kts | 211° |
| 2026-04-21 20:33 | 36.58947 | -76.34741 | 38349 ft | 483 kts | 211° |
| 2026-04-21 20:34 | 36.52879 | -76.38168 | 38365 ft | 482 kts | 211° |
| 2026-04-21 20:34 | 36.46762 | -76.41617 | 38366 ft | 482 kts | 211° |
| 2026-04-21 20:35 | 36.40640 | -76.45062 | 38367 ft | 483 kts | 211° |
| 2026-04-21 20:35 | 36.34517 | -76.48502 | 38369 ft | 483 kts | 211° |
| 2026-04-21 20:36 | 36.28396 | -76.51935 | 38363 ft | 482 kts | 210° |
| 2026-04-21 20:36 | 36.22332 | -76.55330 | 38348 ft | 482 kts | 211° |
| 2026-04-21 20:37 | 36.16213 | -76.58751 | 38363 ft | 482 kts | 211° |
| 2026-04-21 20:37 | 36.10094 | -76.62165 | 38367 ft | 482 kts | 211° |
| 2026-04-21 20:38 | 36.03974 | -76.65573 | 38363 ft | 482 kts | 211° |
| 2026-04-21 20:38 | 35.97895 | -76.68953 | 38364 ft | 482 kts | 211° |
| 2026-04-21 20:39 | 35.91780 | -76.72348 | 38366 ft | 482 kts | 211° |
| 2026-04-21 20:39 | 35.85663 | -76.75738 | 38368 ft | 482 kts | 211° |
| 2026-04-21 20:40 | 35.79545 | -76.79122 | 38365 ft | 482 kts | 211° |
| 2026-04-21 20:40 | 35.73426 | -76.82502 | 38364 ft | 482 kts | 211° |
| 2026-04-21 20:41 | 35.67339 | -76.85858 | 38365 ft | 482 kts | 211° |
| 2026-04-21 20:41 | 35.61205 | -76.89234 | 38359 ft | 484 kts | 211° |
| 2026-04-21 20:42 | 35.55064 | -76.92608 | 38358 ft | 483 kts | 211° |
| 2026-04-21 20:42 | 35.48921 | -76.95977 | 38358 ft | 484 kts | 211° |
| 2026-04-21 20:43 | 35.42818 | -76.99320 | 38360 ft | 483 kts | 211° |
| 2026-04-21 20:43 | 35.36674 | -77.02679 | 38361 ft | 484 kts | 211° |
| 2026-04-21 20:44 | 35.30529 | -77.06033 | 38366 ft | 484 kts | 211° |
| 2026-04-21 20:44 | 35.24381 | -77.09383 | 38366 ft | 484 kts | 211° |
| 2026-04-21 20:45 | 35.18233 | -77.12727 | 38371 ft | 484 kts | 211° |
| 2026-04-21 20:45 | 35.12122 | -77.16046 | 38365 ft | 484 kts | 211° |
| 2026-04-21 20:46 | 35.05972 | -77.19381 | 38352 ft | 483 kts | 211° |
| 2026-04-21 20:46 | 34.99821 | -77.22710 | 38367 ft | 484 kts | 211° |
| 2026-04-21 20:47 | 34.93662 | -77.26039 | 38367 ft | 485 kts | 211° |
| 2026-04-21 20:47 | 34.87538 | -77.29343 | 38356 ft | 484 kts | 211° |
| 2026-04-21 20:48 | 34.81375 | -77.32662 | 38351 ft | 483 kts | 211° |
| 2026-04-21 20:48 | 34.75226 | -77.35969 | 38349 ft | 484 kts | 211° |
| 2026-04-21 20:49 | 34.69072 | -77.39273 | 38349 ft | 483 kts | 211° |
| 2026-04-21 20:49 | 34.62961 | -77.42549 | 38349 ft | 483 kts | 211° |
| 2026-04-21 20:50 | 34.56808 | -77.45841 | 38352 ft | 484 kts | 211° |
| 2026-04-21 20:50 | 34.50651 | -77.49131 | 38356 ft | 484 kts | 211° |
| 2026-04-21 20:51 | 34.44493 | -77.52415 | 38362 ft | 483 kts | 211° |
| 2026-04-21 20:51 | 34.38334 | -77.55696 | 38363 ft | 483 kts | 211° |
| 2026-04-21 20:52 | 34.32213 | -77.58950 | 38361 ft | 485 kts | 211° |
| 2026-04-21 20:52 | 34.26056 | -77.62217 | 38363 ft | 482 kts | 211° |
| 2026-04-21 20:53 | 34.19910 | -77.65475 | 38366 ft | 483 kts | 211° |
| 2026-04-21 20:53 | 34.13759 | -77.68730 | 38358 ft | 483 kts | 211° |
| 2026-04-21 20:54 | 34.07648 | -77.71959 | 38352 ft | 483 kts | 211° |
| 2026-04-21 20:54 | 34.01487 | -77.75208 | 38351 ft | 483 kts | 211° |
| 2026-04-21 20:55 | 33.95331 | -77.78451 | 38361 ft | 483 kts | 211° |
| 2026-04-21 20:55 | 33.89171 | -77.81691 | 38354 ft | 483 kts | 211° |
| 2026-04-21 20:56 | 33.84062 | -77.84375 | 38357 ft | 480 kts | 211° |
| 2026-04-21 20:56 | 33.76807 | -77.87776 | 38358 ft | 488 kts | 204° |
| 2026-04-21 20:57 | 33.70270 | -77.90013 | 38357 ft | 488 kts | 203° |
| 2026-04-21 20:57 | 33.63740 | -77.92271 | 38357 ft | 488 kts | 204° |
| 2026-04-21 20:58 | 33.58324 | -77.94145 | 38353 ft | 487 kts | 204° |
| 2026-04-21 20:58 | 33.50765 | -77.96757 | 38354 ft | 485 kts | 204° |
| 2026-04-21 20:59 | 33.45328 | -77.98632 | 38355 ft | 486 kts | 204° |
| 2026-04-21 20:59 | 33.37781 | -78.01230 | 38352 ft | 486 kts | 204° |
| 2026-04-21 21:00 | 33.32386 | -78.03084 | 38355 ft | 485 kts | 204° |
| 2026-04-21 21:00 | 33.25894 | -78.05313 | 38349 ft | 485 kts | 204° |
| 2026-04-21 21:01 | 33.19403 | -78.07537 | 38346 ft | 485 kts | 204° |
| 2026-04-21 21:01 | 33.12911 | -78.09758 | 38347 ft | 485 kts | 204° |
| 2026-04-21 21:02 | 33.06470 | -78.11958 | 38339 ft | 485 kts | 204° |
| 2026-04-21 21:02 | 32.99986 | -78.14169 | 38341 ft | 485 kts | 204° |
| 2026-04-21 21:03 | 32.93500 | -78.16378 | 38342 ft | 485 kts | 204° |
| 2026-04-21 21:03 | 32.87017 | -78.18583 | 38333 ft | 485 kts | 204° |
| 2026-04-21 21:04 | 32.80573 | -78.20771 | 38335 ft | 485 kts | 204° |
| 2026-04-21 21:04 | 32.74087 | -78.22970 | 38333 ft | 485 kts | 204° |
| 2026-04-21 21:05 | 32.67601 | -78.25165 | 38330 ft | 485 kts | 204° |
| 2026-04-21 21:05 | 32.61113 | -78.27358 | 38332 ft | 485 kts | 204° |
| 2026-04-21 21:06 | 32.54689 | -78.29525 | 38330 ft | 483 kts | 203° |
| 2026-04-21 21:06 | 32.48223 | -78.31705 | 38328 ft | 483 kts | 203° |
| 2026-04-21 21:07 | 32.41755 | -78.33881 | 38327 ft | 483 kts | 203° |
| 2026-04-21 21:07 | 32.35289 | -78.36053 | 38325 ft | 483 kts | 203° |
| 2026-04-21 21:08 | 32.28839 | -78.38217 | 38331 ft | 482 kts | 203° |
| 2026-04-21 21:08 | 32.22428 | -78.40365 | 38323 ft | 482 kts | 203° |
| 2026-04-21 21:09 | 32.15980 | -78.42522 | 38320 ft | 482 kts | 203° |
| 2026-04-21 21:09 | 32.09601 | -78.44870 | 38313 ft | 481 kts | 204° |
| 2026-04-21 21:10 | 32.03136 | -78.46914 | 38314 ft | 480 kts | 202° |
| 2026-04-21 21:10 | 31.96728 | -78.48957 | 38314 ft | 480 kts | 203° |
| 2026-04-21 21:11 | 31.90299 | -78.51077 | 38312 ft | 480 kts | 203° |
| 2026-04-21 21:11 | 31.83874 | -78.53212 | 38306 ft | 480 kts | 203° |
| 2026-04-21 21:12 | 31.77462 | -78.55339 | 38306 ft | 478 kts | 203° |
| 2026-04-21 21:12 | 31.71095 | -78.57448 | 38305 ft | 479 kts | 203° |
| 2026-04-21 21:13 | 31.64688 | -78.59566 | 38305 ft | 479 kts | 203° |
| 2026-04-21 21:13 | 31.58278 | -78.61690 | 38306 ft | 479 kts | 203° |
| 2026-04-21 21:14 | 31.51871 | -78.63798 | 38305 ft | 478 kts | 203° |
| 2026-04-21 21:14 | 31.45506 | -78.65891 | 38304 ft | 478 kts | 203° |
| 2026-04-21 21:15 | 31.39098 | -78.67997 | 38309 ft | 478 kts | 203° |
| 2026-04-21 21:15 | 31.32697 | -78.70098 | 38307 ft | 478 kts | 203° |
| 2026-04-21 21:16 | 31.26294 | -78.72197 | 38305 ft | 478 kts | 203° |
| 2026-04-21 21:16 | 31.19930 | -78.74280 | 38309 ft | 478 kts | 203° |
| 2026-04-21 21:17 | 31.13527 | -78.76374 | 38306 ft | 478 kts | 203° |
| 2026-04-21 21:17 | 31.07120 | -78.78465 | 38306 ft | 478 kts | 203° |
| 2026-04-21 21:18 | 31.00720 | -78.80554 | 38304 ft | 477 kts | 203° |
| 2026-04-21 21:18 | 30.94374 | -78.82621 | 38305 ft | 476 kts | 204° |
| 2026-04-21 21:19 | 30.87989 | -78.84715 | 38303 ft | 475 kts | 203° |
| 2026-04-21 21:19 | 30.81606 | -78.86778 | 38302 ft | 477 kts | 203° |
| 2026-04-21 21:20 | 30.75207 | -78.88837 | 38283 ft | 476 kts | 203° |
| 2026-04-21 21:20 | 30.68871 | -78.90884 | 38301 ft | 476 kts | 203° |
| 2026-04-21 21:21 | 30.62487 | -78.92949 | 38303 ft | 476 kts | 203° |
| 2026-04-21 21:21 | 30.56106 | -78.95009 | 38303 ft | 476 kts | 203° |
| 2026-04-21 21:22 | 30.49722 | -78.97068 | 38300 ft | 476 kts | 203° |
| 2026-04-21 21:22 | 30.43394 | -78.99107 | 38299 ft | 474 kts | 204° |
| 2026-04-21 21:23 | 30.37232 | -79.01650 | 38301 ft | 469 kts | 208° |
| 2026-04-21 21:23 | 30.31133 | -79.04331 | 38300 ft | 469 kts | 208° |
| 2026-04-21 21:24 | 30.25026 | -79.07001 | 38298 ft | 469 kts | 208° |
| 2026-04-21 21:24 | 30.18914 | -79.09665 | 38298 ft | 469 kts | 208° |
| 2026-04-21 21:25 | 30.12843 | -79.12306 | 38300 ft | 469 kts | 208° |
| 2026-04-21 21:25 | 30.06735 | -79.14961 | 38300 ft | 469 kts | 208° |
| 2026-04-21 21:26 | 30.00620 | -79.17615 | 38301 ft | 470 kts | 208° |
| 2026-04-21 21:26 | 29.94505 | -79.20265 | 38273 ft | 469 kts | 208° |
| 2026-04-21 21:27 | 29.88447 | -79.22887 | 38298 ft | 468 kts | 208° |
| 2026-04-21 21:27 | 29.82347 | -79.25524 | 38301 ft | 468 kts | 208° |
| 2026-04-21 21:28 | 29.76245 | -79.28159 | 38298 ft | 468 kts | 208° |
| 2026-04-21 21:29 | 29.67089 | -79.32105 | 38273 ft | 468 kts | 208° |
| 2026-04-21 21:29 | 29.61039 | -79.34707 | 38301 ft | 467 kts | 208° |
| 2026-04-21 21:30 | 29.54951 | -79.37325 | 38295 ft | 467 kts | 208° |
| 2026-04-21 21:30 | 29.48856 | -79.39941 | 38303 ft | 467 kts | 208° |
| 2026-04-21 21:31 | 29.42761 | -79.42553 | 38296 ft | 468 kts | 208° |
| 2026-04-21 21:31 | 29.36717 | -79.45139 | 38297 ft | 466 kts | 208° |
| 2026-04-21 21:32 | 29.30638 | -79.47739 | 38298 ft | 467 kts | 208° |
| 2026-04-21 21:32 | 29.24553 | -79.50341 | 38295 ft | 466 kts | 210° |
| 2026-04-21 21:33 | 29.18473 | -79.52950 | 38295 ft | 467 kts | 208° |
| 2026-04-21 21:33 | 29.12872 | -79.56346 | 38266 ft | 447 kts | 226° |
| 2026-04-21 21:34 | 29.08727 | -79.61342 | 38302 ft | 429 kts | 243° |
| 2026-04-21 21:34 | 29.06178 | -79.67362 | 38298 ft | 417 kts | 256° |
| 2026-04-21 21:35 | 29.04295 | -79.73637 | 38291 ft | 417 kts | 256° |
| 2026-04-21 21:35 | 29.02390 | -79.79895 | 38294 ft | 417 kts | 256° |
| 2026-04-21 21:36 | 29.00498 | -79.86099 | 38297 ft | 416 kts | 256° |
| 2026-04-21 21:36 | 28.98590 | -79.92343 | 38296 ft | 416 kts | 256° |
| 2026-04-21 21:37 | 28.96678 | -79.98583 | 38292 ft | 416 kts | 255° |
| 2026-04-21 21:37 | 28.94731 | -80.04808 | 38293 ft | 417 kts | 255° |
| 2026-04-21 21:38 | 28.92785 | -80.10992 | 38295 ft | 416 kts | 255° |
| 2026-04-21 21:38 | 28.90828 | -80.17211 | 38282 ft | 416 kts | 255° |
| 2026-04-21 21:39 | 28.88873 | -80.23423 | 38265 ft | 416 kts | 255° |
| 2026-04-21 21:39 | 28.86914 | -80.29635 | 38288 ft | 416 kts | 255° |
| 2026-04-21 21:40 | 28.84953 | -80.35842 | 38286 ft | 416 kts | 255° |
| 2026-04-21 21:40 | 28.83001 | -80.42007 | 38290 ft | 416 kts | 255° |
| 2026-04-21 21:41 | 28.81034 | -80.48209 | 38284 ft | 416 kts | 255° |
| 2026-04-21 21:41 | 28.79064 | -80.54408 | 38267 ft | 416 kts | 255° |
| 2026-04-21 21:42 | 28.77050 | -80.60589 | 38277 ft | 417 kts | 253° |
| 2026-04-21 21:42 | 28.74800 | -80.66686 | 38267 ft | 418 kts | 252° |
| 2026-04-21 21:43 | 28.72560 | -80.72741 | 38270 ft | 418 kts | 252° |
| 2026-04-21 21:43 | 28.70327 | -80.78848 | 38271 ft | 417 kts | 252° |
| 2026-04-21 21:43 | 28.69223 | -80.81865 | 38136 ft | 407 kts | 252° |
| 2026-04-21 21:44 | 28.68150 | -80.84792 | 37865 ft | 395 kts | 253° |
| 2026-04-21 21:44 | 28.67103 | -80.87652 | 37597 ft | 389 kts | 253° |
| 2026-04-21 21:44 | 28.66055 | -80.90529 | 37362 ft | 399 kts | 253° |
| 2026-04-21 21:44 | 28.64985 | -80.93472 | 37075 ft | 405 kts | 253° |
| 2026-04-21 21:45 | 28.63875 | -80.96382 | 36820 ft | 408 kts | 251° |
| 2026-04-21 21:45 | 28.62666 | -80.99308 | 36562 ft | 410 kts | 250° |
| 2026-04-21 21:45 | 28.61432 | -81.02240 | 36316 ft | 411 kts | 250° |
| 2026-04-21 21:45 | 28.60199 | -81.05175 | 35896 ft | 411 kts | 250° |
| 2026-04-21 21:46 | 28.58973 | -81.08121 | 35138 ft | 415 kts | 251° |
| 2026-04-21 21:46 | 28.57734 | -81.11118 | 34097 ft | 423 kts | 251° |
| 2026-04-21 21:46 | 28.56467 | -81.14199 | 32754 ft | 436 kts | 250° |
| 2026-04-21 21:46 | 28.55171 | -81.17343 | 31715 ft | 441 kts | 250° |
| 2026-04-21 21:47 | 28.53881 | -81.20463 | 30789 ft | 443 kts | 250° |
| 2026-04-21 21:47 | 28.52571 | -81.23623 | 29540 ft | 441 kts | 250° |
| 2026-04-21 21:47 | 28.51263 | -81.26778 | 28030 ft | 442 kts | 249° |
| 2026-04-21 21:47 | 28.49955 | -81.29946 | 26451 ft | 444 kts | 250° |
| 2026-04-21 21:48 | 28.48836 | -81.33209 | 24854 ft | 443 kts | 255° |
| 2026-04-21 21:48 | 28.48032 | -81.36582 | 23267 ft | 441 kts | 260° |
| 2026-04-21 21:48 | 28.47340 | -81.39971 | 21705 ft | 438 kts | 259° |
| 2026-04-21 21:48 | 28.46644 | -81.43325 | 20244 ft | 434 kts | 258° |
| 2026-04-21 21:49 | 28.45946 | -81.46653 | 18851 ft | 431 kts | 258° |
| 2026-04-21 21:49 | 28.45260 | -81.49904 | 17505 ft | 425 kts | 258° |
| 2026-04-21 21:49 | 28.44575 | -81.53145 | 16142 ft | 419 kts | 258° |
| 2026-04-21 21:49 | 28.43898 | -81.56348 | 14798 ft | 416 kts | 258° |
| 2026-04-21 21:50 | 28.43227 | -81.59516 | 13498 ft | 410 kts | 259° |
| 2026-04-21 21:50 | 28.42567 | -81.62639 | 12187 ft | 404 kts | 258° |
| 2026-04-21 21:50 | 28.41917 | -81.65721 | 10944 ft | 398 kts | 258° |
| 2026-04-21 21:50 | 28.41274 | -81.68760 | 9672 ft | 393 kts | 257° |
| 2026-04-21 21:51 | 28.40637 | -81.71762 | 8689 ft | 384 kts | 257° |
| 2026-04-21 21:51 | 28.40030 | -81.74609 | 8355 ft | 359 kts | 257° |
| 2026-04-21 21:51 | 28.39459 | -81.77277 | 8075 ft | 335 kts | 257° |
| 2026-04-21 21:51 | 28.38933 | -81.79736 | 7842 ft | 315 kts | 257° |
| 2026-04-21 21:52 | 28.38432 | -81.82080 | 7620 ft | 296 kts | 257° |
| 2026-04-21 21:52 | 28.37954 | -81.84316 | 7169 ft | 289 kts | 257° |
| 2026-04-21 21:52 | 28.37484 | -81.86521 | 6650 ft | 286 kts | 257° |
| 2026-04-21 21:52 | 28.37013 | -81.88735 | 5872 ft | 292 kts | 256° |
| 2026-04-21 21:53 | 28.36539 | -81.90958 | 5386 ft | 285 kts | 256° |
| 2026-04-21 21:53 | 28.36106 | -81.93174 | 5310 ft | 292 kts | 262° |
| 2026-04-21 21:53 | 28.36011 | -81.95451 | 5118 ft | 288 kts | 272° |
| 2026-04-21 21:53 | 28.35806 | -81.97701 | 4798 ft | 285 kts | 252° |
| 2026-04-21 21:54 | 28.34902 | -81.99617 | 4383 ft | 279 kts | 225° |
| 2026-04-21 21:54 | 28.33391 | -82.00892 | 4250 ft | 271 kts | 207° |
| 2026-04-21 21:54 | 28.31741 | -82.01990 | 4151 ft | 280 kts | 206° |
| 2026-04-21 21:54 | 28.30067 | -82.03099 | 4026 ft | 274 kts | 207° |
| 2026-04-21 21:55 | 28.28411 | -82.04192 | 3943 ft | 274 kts | 206° |
| 2026-04-21 21:55 | 28.26785 | -82.05266 | 3843 ft | 267 kts | 206° |
| 2026-04-21 21:55 | 28.25187 | -82.06320 | 3727 ft | 267 kts | 206° |
| 2026-04-21 21:55 | 28.23573 | -82.07384 | 3593 ft | 267 kts | 207° |
| 2026-04-21 21:56 | 28.21970 | -82.08442 | 3468 ft | 268 kts | 206° |
| 2026-04-21 21:56 | 28.20385 | -82.09484 | 3345 ft | 267 kts | 206° |
| 2026-04-21 21:56 | 28.18782 | -82.10541 | 3224 ft | 264 kts | 206° |
| 2026-04-21 21:56 | 28.17197 | -82.11585 | 3099 ft | 266 kts | 207° |
| 2026-04-21 21:57 | 28.15605 | -82.12633 | 3006 ft | 264 kts | 207° |
| 2026-04-21 21:57 | 28.14029 | -82.13672 | 2996 ft | 263 kts | 206° |
| 2026-04-21 21:57 | 28.12447 | -82.14713 | 2984 ft | 264 kts | 206° |
| 2026-04-21 21:57 | 28.10845 | -82.15765 | 2984 ft | 266 kts | 206° |
| 2026-04-21 21:58 | 28.09245 | -82.16818 | 2987 ft | 265 kts | 206° |
| 2026-04-21 21:58 | 28.07595 | -82.17674 | 2990 ft | 256 kts | 187° |
| 2026-04-21 21:58 | 28.05839 | -82.17881 | 2985 ft | 259 kts | 182° |
| 2026-04-21 21:58 | 28.04052 | -82.18205 | 2995 ft | 263 kts | 185° |
| 2026-04-21 21:59 | 28.02265 | -82.18596 | 2991 ft | 259 kts | 185° |
| 2026-04-21 21:59 | 28.00479 | -82.18618 | 2989 ft | 258 kts | 160° |
| 2026-04-21 21:59 | 27.99017 | -82.17604 | 2949 ft | 241 kts | 124° |
| 2026-04-21 21:59 | 27.98502 | -82.15884 | 2446 ft | 235 kts | 91° |
| 2026-04-21 22:00 | 27.98626 | -82.14075 | 1747 ft | 220 kts | 81° |
| 2026-04-21 22:00 | 27.98812 | -82.12476 | 1480 ft | 191 kts | 83° |
| 2026-04-21 22:00 | 27.98914 | -82.11077 | 1352 ft | 167 kts | 87° |
| 2026-04-21 22:00 | 27.98919 | -82.09882 | 1302 ft | 144 kts | 89° |
| 2026-04-21 22:01 | 27.98894 | -82.08789 | 1112 ft | 135 kts | 89° |
| 2026-04-21 22:01 | 27.98884 | -82.07700 | 1016 ft | 147 kts | 88° |
| 2026-04-21 22:01 | 27.98912 | -82.06532 | 706 ft | 141 kts | 90° |
| 2026-04-21 22:01 | 27.98915 | -82.05494 | 548 ft | 124 kts | 89° |
| 2026-04-21 22:02 | 27.98917 | -82.04529 | 358 ft | 120 kts | 90° |
| 2026-04-21 22:02 | 27.98923 | -82.03595 | 205 ft | 121 kts | 91° |
| 2026-04-21 22:02 | 27.98924 | -82.02675 | 141 ft | 107 kts | 90° |
| 2026-04-21 22:02 | 27.98927 | -82.02056 | 143 ft | 44 kts | 88° |
| 2026-04-21 22:03 | 27.98997 | -82.01793 | 145 ft | 29 kts | 67° |
| 2026-04-21 22:03 | 27.99038 | -82.01628 | 142 ft | 17 kts | 90° |
| 2026-04-21 22:03 | 27.99065 | -82.01540 | 143 ft | 11 kts | 23° |
| 2026-04-21 22:03 | 27.99152 | -82.01530 | 144 ft | 12 kts | 9° |
| 2026-04-21 22:04 | 27.99199 | -82.01519 | 144 ft | 5 kts | 26° |
| 2026-04-21 22:04 | 27.99194 | -82.01488 | 144 ft | 6 kts | 118° |
| 2026-04-21 22:04 | 27.99189 | -82.01451 | 143 ft | 5 kts | 91° |
| 2026-04-21 22:04 | 27.99189 | -82.01449 | 143 ft | 0 kts | 90° |